createdAt,value
2022-11-27T00:01:09.898Z,100.00
2022-11-27T00:06:18.058Z,100.00
2022-11-27T00:11:22.473Z,100.00
2022-11-27T00:16:26.610Z,100.00
2022-11-27T00:21:31.754Z,100.00
2022-11-27T00:26:37.767Z,100.00
2022-11-27T00:31:40.766Z,100.00
2022-11-27T00:36:47.793Z,100.00
2022-11-27T00:41:50.548Z,100.00
2022-11-27T00:46:52.745Z,100.00
2022-11-27T00:51:54.892Z,100.00
2022-11-27T00:56:57.110Z,100.00
2022-11-27T01:01:59.490Z,100.00
2022-11-27T01:07:01.662Z,100.00
2022-11-27T01:12:04.114Z,100.00
2022-11-27T01:17:06.428Z,100.00
2022-11-27T01:22:08.741Z,100.00
2022-11-27T01:27:10.879Z,100.00
2022-11-27T01:32:12.974Z,100.00
2022-11-27T01:37:15.225Z,100.00
2022-11-27T01:42:39.899Z,100.00
2022-11-27T01:47:47.534Z,100.00
2022-11-27T01:52:54.767Z,100.00
2022-11-27T01:58:02.472Z,100.00
2022-11-27T02:03:04.925Z,100.00
2022-11-27T02:08:10.576Z,100.00
2022-11-27T02:13:22.044Z,100.00
2022-11-27T02:19:04.077Z,100.00
2022-11-27T02:24:41.940Z,100.00
2022-11-27T02:29:48.455Z,100.00
2022-11-27T02:35:04.511Z,100.00
2022-11-27T02:40:14.566Z,100.00
2022-11-27T02:45:24.149Z,100.00
2022-11-27T02:50:29.755Z,100.00
2022-11-27T02:55:35.158Z,100.00
2022-11-27T03:00:40.004Z,100.00
2022-11-27T03:05:46.006Z,100.00
2022-11-27T03:11:07.099Z,100.00
2022-11-27T03:16:12.218Z,100.00
2022-11-27T03:21:27.348Z,100.00
2022-11-27T03:26:31.123Z,100.00
2022-11-27T03:31:33.696Z,100.00
2022-11-27T03:36:35.900Z,100.00
2022-11-27T03:41:59.933Z,100.00
2022-11-27T03:47:45.042Z,100.00
2022-11-27T03:53:23.492Z,100.00
2022-11-27T03:58:35.567Z,100.00
2022-11-27T04:03:38.092Z,100.00
2022-11-27T04:08:40.798Z,100.00
2022-11-27T04:13:43.207Z,100.00
2022-11-27T04:18:45.351Z,100.00
2022-11-27T04:23:47.441Z,100.00
2022-11-27T04:28:49.703Z,100.00
2022-11-27T04:33:51.960Z,100.00
2022-11-27T04:38:54.107Z,100.00
2022-11-27T04:43:56.230Z,100.00
2022-11-27T04:49:01.377Z,100.00
2022-11-27T04:54:03.680Z,100.00
2022-11-27T04:59:06.088Z,100.00
2022-11-27T05:04:08.125Z,100.00
2022-11-27T05:09:10.424Z,100.00
2022-11-27T05:14:15.286Z,100.00
2022-11-27T05:19:19.495Z,100.00
2022-11-27T05:24:24.455Z,100.00
2022-11-27T05:29:27.019Z,100.00
2022-11-27T05:34:29.214Z,100.00
2022-11-27T05:39:31.324Z,100.00
2022-11-27T05:44:57.904Z,100.00
2022-11-27T05:50:00.831Z,100.00
2022-11-27T05:55:06.211Z,100.00
2022-11-27T06:00:09.069Z,100.00
2022-11-27T06:05:11.277Z,100.00
2022-11-27T06:10:13.759Z,100.00
2022-11-27T06:15:16.018Z,100.00
2022-11-27T06:20:20.413Z,100.00
2022-11-27T06:25:22.471Z,100.00
2022-11-27T06:30:24.876Z,100.00
2022-11-27T06:35:26.950Z,100.00
2022-11-27T06:40:29.019Z,100.00
2022-11-27T06:45:31.462Z,100.00
2022-11-27T06:50:33.966Z,100.00
2022-11-27T06:55:39.143Z,100.00
2022-11-27T07:00:41.487Z,100.00
2022-11-27T07:05:43.804Z,100.00
2022-11-27T07:10:46.172Z,100.00
2022-11-27T07:15:48.397Z,100.00
2022-11-27T07:20:56.612Z,100.00
2022-11-27T07:25:59.600Z,100.00
2022-11-27T07:31:02.264Z,100.00
2022-11-27T07:36:12.776Z,100.00
2022-11-27T07:41:15.487Z,100.00
2022-11-27T07:46:23.567Z,100.00
2022-11-27T07:51:25.767Z,100.00
2022-11-27T07:56:28.120Z,100.00
2022-11-27T08:01:30.241Z,100.00
2022-11-27T08:06:32.655Z,100.00
2022-11-27T08:11:35.528Z,100.00
2022-11-27T08:16:37.789Z,98.10
2022-11-27T08:21:39.870Z,98.18
2022-11-27T08:26:42.196Z,95.87
2022-11-27T08:31:44.277Z,97.31
2022-11-27T08:36:46.514Z,96.35
2022-11-27T08:41:48.551Z,94.67
2022-11-27T08:46:50.808Z,92.51
2022-11-27T08:51:53.082Z,87.76
2022-11-27T08:56:55.438Z,85.77
2022-11-27T09:01:57.548Z,81.52
2022-11-27T09:06:59.834Z,83.01
2022-11-27T09:12:02.110Z,83.03
2022-11-27T09:17:04.261Z,80.58
2022-11-27T09:22:06.401Z,80.77
2022-11-27T09:27:08.598Z,78.53
2022-11-27T09:32:10.853Z,75.84
2022-11-27T09:37:12.975Z,72.56
2022-11-27T09:42:34.304Z,57.37
2022-11-27T09:47:41.929Z,50.40
2022-11-27T09:53:12.025Z,49.01
2022-11-27T09:58:36.491Z,47.18
2022-11-27T10:03:42.164Z,47.73
2022-11-27T10:09:02.891Z,49.59
2022-11-27T10:14:29.582Z,49.36
2022-11-27T10:19:52.283Z,48.02
2022-11-27T10:25:18.435Z,48.03
2022-11-27T10:30:22.265Z,48.73
2022-11-27T10:35:30.837Z,47.89
2022-11-27T10:41:07.762Z,48.25
2022-11-27T10:46:19.616Z,48.09
2022-11-27T10:51:30.924Z,47.43
2022-11-27T10:56:36.467Z,47.08
2022-11-27T11:01:47.513Z,48.26
2022-11-27T11:06:50.311Z,49.86
2022-11-27T11:11:52.668Z,49.39
2022-11-27T11:16:55.157Z,50.41
2022-11-27T11:22:00.094Z,50.08
2022-11-27T11:27:27.356Z,49.60
2022-11-27T11:32:36.503Z,49.43
2022-11-27T11:37:42.646Z,49.08
2022-11-27T11:42:55.574Z,49.81
2022-11-27T11:48:03.735Z,50.13
2022-11-27T11:53:22.789Z,49.48
2022-11-27T11:58:53.071Z,50.50
2022-11-27T12:04:24.625Z,50.40
2022-11-27T12:09:29.506Z,50.30
2022-11-27T12:14:40.904Z,50.58
2022-11-27T12:20:20.263Z,51.31
2022-11-27T12:25:34.336Z,52.15
2022-11-27T12:30:48.902Z,52.78
2022-11-27T12:36:26.515Z,52.99
2022-11-27T12:41:28.626Z,54.07
2022-11-27T12:47:03.305Z,54.45
2022-11-27T12:52:21.675Z,54.60
2022-11-27T12:57:40.709Z,54.97
2022-11-27T13:03:09.427Z,55.64
2022-11-27T13:08:21.214Z,55.70
2022-11-27T13:13:34.974Z,55.32
2022-11-27T13:18:41.746Z,56.40
2022-11-27T13:23:44.405Z,57.44
2022-11-27T13:29:13.974Z,57.10
2022-11-27T13:34:24.031Z,56.85
2022-11-27T13:39:29.516Z,57.03
2022-11-27T13:44:34.641Z,57.42
2022-11-27T13:49:38.309Z,57.56
2022-11-27T13:54:56.030Z,58.65
2022-11-27T14:00:09.073Z,58.36
2022-11-27T14:05:19.789Z,58.80
2022-11-27T14:10:25.936Z,59.40
2022-11-27T14:15:30.861Z,58.79
2022-11-27T14:20:35.355Z,58.62
2022-11-27T14:25:38.270Z,59.17
2022-11-27T14:30:48.365Z,59.97
2022-11-27T14:35:56.932Z,60.67
2022-11-27T14:41:09.880Z,61.94
2022-11-27T14:46:21.248Z,63.59
2022-11-27T14:51:29.900Z,64.31
2022-11-27T14:56:39.439Z,65.42
2022-11-27T15:01:42.154Z,65.48
2022-11-27T15:06:46.787Z,65.45
2022-11-27T15:12:11.865Z,69.01
2022-11-27T15:17:24.685Z,70.16
2022-11-27T15:22:27.087Z,72.23
2022-11-27T15:27:33.640Z,73.86
2022-11-27T15:32:56.167Z,74.98
2022-11-27T15:38:04.902Z,76.21
2022-11-27T15:43:12.882Z,74.88
2022-11-27T15:48:17.662Z,75.47
2022-11-27T15:53:19.991Z,75.39
2022-11-27T15:58:22.075Z,77.80
2022-11-27T16:03:24.271Z,78.17
2022-11-27T16:08:26.572Z,78.73
2022-11-27T16:13:29.515Z,79.55
2022-11-27T16:18:33.044Z,79.85
2022-11-27T16:23:38.091Z,81.56
2022-11-27T16:28:40.731Z,81.90
2022-11-27T16:33:42.925Z,81.87
2022-11-27T16:38:46.643Z,81.91
2022-11-27T16:43:51.653Z,80.77
2022-11-27T16:48:57.537Z,82.25
2022-11-27T16:54:02.623Z,83.78
2022-11-27T16:59:11.127Z,83.21
2022-11-27T17:04:21.363Z,83.87
2022-11-27T17:09:26.180Z,84.28
2022-11-27T17:14:28.538Z,83.49
2022-11-27T17:19:31.893Z,86.06
2022-11-27T17:24:36.117Z,85.64
2022-11-27T17:29:41.291Z,86.40
2022-11-27T17:34:43.737Z,86.13
2022-11-27T17:39:46.040Z,86.94
2022-11-27T17:44:50.232Z,86.52
2022-11-27T17:49:52.423Z,89.22
2022-11-27T17:54:54.516Z,86.95
2022-11-27T17:59:56.611Z,89.09
2022-11-27T18:04:59.399Z,88.62
2022-11-27T18:10:02.666Z,89.89
2022-11-27T18:15:05.283Z,89.33
2022-11-27T18:20:08.283Z,88.55
2022-11-27T18:25:10.323Z,90.65
2022-11-27T18:30:13.316Z,90.81
2022-11-27T18:35:15.492Z,91.59
2022-11-27T18:40:17.595Z,89.82
2022-11-27T18:45:32.759Z,92.11
2022-11-27T18:50:35.860Z,92.58
2022-11-27T18:55:38.132Z,91.66
2022-11-27T19:00:40.318Z,92.05
2022-11-27T19:05:42.400Z,91.26
2022-11-27T19:10:44.908Z,91.72
2022-11-27T19:15:47.601Z,92.71
2022-11-27T19:20:51.907Z,92.28
2022-11-27T19:25:56.584Z,94.29
2022-11-27T19:30:59.190Z,93.56
2022-11-27T19:36:03.309Z,95.09
2022-11-27T19:41:12.437Z,94.66
2022-11-27T19:46:19.676Z,94.84
2022-11-27T19:51:28.503Z,96.77
2022-11-27T19:56:34.105Z,97.01
2022-11-27T20:01:38.067Z,96.75
2022-11-27T20:06:43.928Z,95.30
2022-11-27T20:11:46.300Z,95.47
2022-11-27T20:16:49.625Z,95.41
2022-11-27T20:21:52.671Z,95.83
2022-11-27T20:26:54.677Z,95.98
2022-11-27T20:31:57.031Z,96.33
2022-11-27T20:36:59.131Z,97.60
2022-11-27T20:42:01.310Z,99.30
2022-11-27T20:47:03.626Z,97.58
2022-11-27T20:52:05.956Z,96.40
2022-11-27T20:57:14.334Z,97.67
2022-11-27T21:02:16.530Z,99.77
2022-11-27T21:07:19.629Z,100.00
2022-11-27T21:12:24.774Z,99.54
2022-11-27T21:17:26.856Z,100.00
2022-11-27T21:22:29.439Z,100.00
2022-11-27T21:27:31.879Z,100.00
2022-11-27T21:32:33.925Z,100.00
2022-11-27T21:37:36.203Z,100.00
2022-11-27T21:42:43.089Z,100.00
2022-11-27T21:47:47.674Z,100.00
2022-11-27T21:52:52.684Z,99.55
2022-11-27T21:57:55.223Z,98.94
2022-11-27T22:02:57.986Z,99.08
2022-11-27T22:08:00.197Z,98.04
2022-11-27T22:13:02.305Z,99.93
2022-11-27T22:18:04.590Z,99.06
2022-11-27T22:23:06.841Z,98.84
2022-11-27T22:28:09.173Z,99.03
2022-11-27T22:33:11.220Z,100.00
2022-11-27T22:38:13.319Z,100.00
2022-11-27T22:43:15.507Z,100.00
2022-11-27T22:48:18.211Z,100.00
2022-11-27T22:53:20.600Z,100.00
2022-11-27T22:58:23.316Z,100.00
2022-11-27T23:03:25.604Z,100.00
2022-11-27T23:08:27.941Z,100.00
2022-11-27T23:13:30.371Z,100.00
2022-11-27T23:18:36.435Z,100.00
2022-11-27T23:23:38.642Z,100.00
2022-11-27T23:28:41.658Z,100.00
2022-11-27T23:33:44.303Z,100.00
2022-11-27T23:38:46.392Z,100.00
2022-11-27T23:43:49.153Z,100.00
2022-11-27T23:48:51.564Z,100.00
2022-11-27T23:53:54.100Z,100.00
2022-11-27T23:58:57.222Z,100.00
